Share

Mexico, MO

NonFedAWOS MEXICO MO US MODOT (MKMYJ) Elev 823 ft | 39.16 °N, 91.82 °W | Change Station

Current weather conditions updated 8 days ago

Clear
Clear
56 °F
Feels Like 56 °F
N
9
Wind Variable Wind from SE
Gusts mph
Sunrise 6:24 AM
Sunset 7:48 PM
Moon Waning Gibbous

Today is forecast to be Warmer than yesterday.

Pressure 30.25 in
Visibility 10.0 miles
Clouds Clear
Dew Point 44 °F
Humidity 61%
Rainfall -999.00 in
Snow Depth Not available.
UV 1 out of 16
Pollen 10.50 out of 12
Air Quality Not available.
Flu Activity Sporadic
METAR KCOU 191254Z 15007KT 10SM CLR 12/06 A3025 RMK AO2 SLP241 T01220061

More Conditions Fewer Conditions

Pressure 30.25 in
Visibility 10.0 miles
Clouds Clear
Dew Point 44 °F
Humidity 61%
Rainfall -999.00 in
Snow Depth Not available.
UV 1 out of 16
Pollen 10.50 out of 12
Air Quality Not available.
Flu Activity Sporadic
METAR KCOU 191254Z 15007KT 10SM CLR 12/06 A3025 RMK AO2 SLP241 T01220061

More Conditions Fewer Conditions

10-Day Weather Forecast

Almanac

Astronomy

Apr. 19, 2014 Rise Set
Actual Time 6:24 AM CDT 7:48 PM CDT
Civil Twilight 5:56 AM CDT 8:16 PM CDT
Nautical Twilight 5:23 AM CDT 8:50 PM CDT
Astronomical Twilight 4:48 AM CDT 9:25 PM CDT
Moon No Moon Rise 9:44 AM CDT
Length of Visible Light 14h 19m
Length of Day
13h 23m
Tomorrow will be 2m 23s longer.
Waning Gibbous, 79% of the Moon is Illuminated
Today
Waning Gibbous
Apr 22
Last Quarter
Apr 29
New
May 6
First Quarter
May 14
Full

Today's Extremes

State Highs State Lows

Community

  • A Glorious Morning
    A Glorious Morning
  • Bleeding Hearts
    Bleeding Hearts
  • Sunset Silhouettes
    Sunset Silhouettes
  • FL sunset Perico Isle
    FL sunset Perico Isle
  • Cloudy spring view
    Cloudy spring view

WunderPhotos

Upload Photos

1,702,727 photos uploaded!

Nearby

Snow Depth

Station Depth Elevation
No new snow has been reported.

Coastal Water Temperatures

Place Temperature
No Stations Reporting

Earthquake Activity

City Distance Mag. Time & Date
No recent earthquake activity has been reported nearby.
Minimum magnitude displayed is 2.5.

Nearby Weather Stations

Station Location Temp. Dew Point Humidity Wind Precip. Elev Updated Type
Mexico, MO 57.2 °F 45 °F 65% SSE  at  2.0 mph 0.00 in / hr 778 ft 8:48 AM CDT Normal
Mexico, MO 59.5 °F 47 °F 63% North  at  0.0 mph 0.00 in / hr 755 ft 8:48 AM CDT Normal
ALSAT Wireless, Montgomery City, MO 57.6 °F 46 °F 64% East  at  2.0 mph 0.00 in / hr 810 ft 8:50 AM CDT Rapid Fire
Rolling Hills, Centralia, MO 60.6 °F 50 °F 67% SSE  at  8.1 mph 0.00 in / hr 863 ft 8:50 AM CDT Rapid Fire
YMCA, Fulton, MO 58.4 °F 45 °F 62% SE  at  10.0 mph 0.00 in / hr 853 ft 8:48 AM CDT Normal
KFTT Elton Hensley Airport, Fulton, MO 59.5 °F 47 °F 63% SSE  at  5.8 mph - / hr 886 ft 8:42 AM CDT Normal

Show More Stations Show Fewer Stations

What do you think?

We're not finished. Please let us know what you like, what you don't like, and what you are still missing.